Map

Track Data

SID SEASON NUMBER BASIN SUBBASIN NAME ISO_TIME NATURE LAT LON WMO_WIND WMO_PRES WMO_AGENCY TRACK_TYPE DIST2LAND LANDFALL IFLAG USA_AGENCY USA_ATCF_ID USA_LAT USA_LON USA_RECORD USA_STATUS USA_WIND USA_PRES USA_SSHS USA_R34_NE USA_R34_SE USA_R34_SW USA_R34_NW USA_R50_NE USA_R50_SE USA_R50_SW USA_R50_NW USA_R64_NE USA_R64_SE USA_R64_SW USA_R64_NW USA_POCI USA_ROCI USA_RMW USA_EYE TOKYO_LAT TOKYO_LON TOKYO_GRADE TOKYO_WIND TOKYO_PRES TOKYO_R50_DIR TOKYO_R50_LONG TOKYO_R50_SHORT TOKYO_R30_DIR TOKYO_R30_LONG TOKYO_R30_SHORT TOKYO_LAND CMA_LAT CMA_LON CMA_CAT CMA_WIND CMA_PRES HKO_LAT HKO_LON HKO_CAT HKO_WIND HKO_PRES NEWDELHI_LAT NEWDELHI_LON NEWDELHI_GRADE NEWDELHI_WIND NEWDELHI_PRES NEWDELHI_CI NEWDELHI_DP NEWDELHI_POCI REUNION_LAT REUNION_LON REUNION_TYPE REUNION_WIND REUNION_PRES REUNION_TNUM REUNION_CI REUNION_RMW REUNION_R34_NE REUNION_R34_SE REUNION_R34_SW REUNION_R34_NW REUNION_R50_NE REUNION_R50_SE REUNION_R50_SW REUNION_R50_NW REUNION_R64_NE REUNION_R64_SE REUNION_R64_SW REUNION_R64_NW BOM_LAT BOM_LON BOM_TYPE BOM_WIND BOM_PRES BOM_TNUM BOM_CI BOM_RMW BOM_R34_NE BOM_R34_SE BOM_R34_SW BOM_R34_NW BOM_R50_NE BOM_R50_SE BOM_R50_SW BOM_R50_NW BOM_R64_NE BOM_R64_SE BOM_R64_SW BOM_R64_NW BOM_ROCI BOM_POCI BOM_EYE BOM_POS_METHOD BOM_PRES_METHOD NADI_LAT NADI_LON NADI_CAT NADI_WIND NADI_PRES WELLINGTON_LAT WELLINGTON_LON WELLINGTON_WIND WELLINGTON_PRES DS824_LAT DS824_LON DS824_STAGE DS824_WIND DS824_PRES TD9636_LAT TD9636_LON TD9636_STAGE TD9636_WIND TD9636_PRES TD9635_LAT TD9635_LON TD9635_WIND TD9635_PRES TD9635_ROCI NEUMANN_LAT NEUMANN_LON NEUMANN_CLASS NEUMANN_WIND NEUMANN_PRES MLC_LAT MLC_LON MLC_CLASS MLC_WIND MLC_PRES USA_GUST BOM_GUST BOM_GUST_PER REUNION_GUST REUNION_GUST_PER USA_SEAHGT USA_SEARAD_NE USA_SEARAD_SE USA_SEARAD_SW USA_SEARAD_NW STORM_SPEED STORM_DIR
1861101S09084 1861 15 SI MM NOT_NAMED 1861-04-11 06:00:00 NR -9.20000 83.5000 main 1722 1716 _____O________ -1 -9.20000 83.5000 99 9.90000 5 268
1861101S09084 1861 15 SI MM NOT_NAMED 1861-04-11 09:00:00 NR -9.20801 83.2318 main 1716 1712 _____P________ -1 -9.20801 83.2318 99 5 268
1861101S09084 1861 15 SI MM NOT_NAMED 1861-04-11 12:00:00 NR -9.21631 82.9641 main 1712 1707 _____P________ -1 -9.21631 82.9641 99 5 268
1861101S09084 1861 15 SI MM NOT_NAMED 1861-04-11 15:00:00 NR -9.22540 82.6975 main 1707 1703 _____P________ -1 -9.22540 82.6975 99 5 268
1861101S09084 1861 15 SI MM NOT_NAMED 1861-04-11 18:00:00 NR -9.23577 82.4325 main 1703 1701 _____P________ -1 -9.23577 82.4325 99 5 268
1861101S09084 1861 15 SI MM NOT_NAMED 1861-04-11 21:00:00 NR -9.24792 82.1698 main 1701 1700 _____P________ -1 -9.24792 82.1698 99 5 267
1861101S09084 1861 15 SI MM NOT_NAMED 1861-04-12 00:00:00 NR -9.26234 81.9097 main 1709 1707 _____P________ -1 -9.26234 81.9097 99 5 266
1861101S09084 1861 15 SI MM NOT_NAMED 1861-04-12 03:00:00 NR -9.27953 81.6530 main 1707 1705 _____P________ -1 -9.27953 81.6530 99 5 266
1861101S09084 1861 15 SI MM NOT_NAMED 1861-04-12 06:00:00 NR -9.30000 81.4000 main 1705 1704 _____O________ -1 -9.30000 81.4000 99 9.90000 5 265
1861101S09084 1861 15 SI MM NOT_NAMED 1861-04-12 09:00:00 NR -9.32416 81.1511 main 1704 1703 _____P________ -1 -9.32416 81.1511 99 5 264
1861101S09084 1861 15 SI MM NOT_NAMED 1861-04-12 12:00:00 NR -9.35212 80.9049 main 1714 1714 _____P________ -1 -9.35212 80.9049 99 5 263
1861101S09084 1861 15 SI MM NOT_NAMED 1861-04-12 15:00:00 NR -9.38388 80.6600 main 1714 1714 _____P________ -1 -9.38388 80.6600 99 5 262
1861101S09084 1861 15 SI MM NOT_NAMED 1861-04-12 18:00:00 NR -9.41946 80.4148 main 1714 1714 _____P________ -1 -9.41946 80.4148 99 5 261
1861101S09084 1861 15 SI MM NOT_NAMED 1861-04-12 21:00:00 NR -9.45886 80.1678 main 1726 1726 _____P________ -1 -9.45886 80.1678 99 5 260
1861101S09084 1861 15 SI MM NOT_NAMED 1861-04-13 00:00:00 NR -9.50209 79.9173 main 1727 1727 _____P________ -1 -9.50209 79.9173 99 5 260
1861101S09084 1861 15 SI MM NOT_NAMED 1861-04-13 03:00:00 NR -9.54914 79.6619 main 1728 1728 _____P________ -1 -9.54914 79.6619 99 5 259
1861101S09084 1861 15 SI MM NOT_NAMED 1861-04-13 06:00:00 NR -9.60000 79.4000 reunion main 1741 1741 _____O________ -1 -9.60000 79.4000 99 9.90000 5 260
1861101S09084 1861 15 SI MM NOT_NAMED 1861-04-13 09:00:00 NR -9.64333 79.1434 main 1744 1744 _____P________ -1 -9.64333 79.1434 99 5 260
1861101S09084 1861 15 SI MM NOT_NAMED 1861-04-13 12:00:00 NR -9.68973 78.8826 main 1758 1758 _____P________ -1 -9.68973 78.8826 99 5 259
1861101S09084 1861 15 SI MM NOT_NAMED 1861-04-13 15:00:00 NR -9.74040 78.6152 main 1762 1762 _____P________ -1 -9.74040 78.6152 99 5 259
1861101S09084 1861 15 SI MM NOT_NAMED 1861-04-13 18:00:00 NR -9.79656 78.3391 main 1777 1777 _____P________ -1 -9.79656 78.3391 99 6 258
1861101S09084 1861 15 SI MM NOT_NAMED 1861-04-13 21:00:00 NR -9.85941 78.0518 main 1791 1791 _____P________ -1 -9.85941 78.0518 99 6 257
1861101S09084 1861 15 SI MM NOT_NAMED 1861-04-14 00:00:00 NR -9.93015 77.7511 main 1797 1797 _____P________ -1 -9.93015 77.7511 99 6 256
1861101S09084 1861 15 SI MM NOT_NAMED 1861-04-14 03:00:00 NR -10.0100 77.4346 main 1816 1816 _____P________ -1 -10.0100 77.4346 99 7 255
1861101S09084 1861 15 SI MM NOT_NAMED 1861-04-14 06:00:00 NR -10.1000 77.1000 reunion main 1834 1834 _____O________ -1 -10.1000 77.1000 99 9.90000 7 255
1861101S09084 1861 15 SI MM NOT_NAMED 1861-04-14 09:00:00 NR -10.1883 76.7510 main 1852 1852 _____P________ -1 -10.1883 76.7510 99 7 255
1861101S09084 1861 15 SI MM NOT_NAMED 1861-04-14 12:00:00 NR -10.2854 76.3842 main 1873 1873 _____P________ -1 -10.2854 76.3842 99 8 255
1861101S09084 1861 15 SI MM NOT_NAMED 1861-04-14 15:00:00 NR -10.3922 76.0012 main 1896 1896 _____P________ -1 -10.3922 76.0012 99 8 254
1861101S09084 1861 15 SI MM NOT_NAMED 1861-04-14 18:00:00 NR -10.5096 75.6036 main 1919 1919 _____P________ -1 -10.5096 75.6036 99 8 253
1861101S09084 1861 15 SI MM NOT_NAMED 1861-04-14 21:00:00 NR -10.6382 75.1931 main 1943 1943 _____P________ -1 -10.6382 75.1931 99 9 252
1861101S09084 1861 15 SI MM NOT_NAMED 1861-04-15 00:00:00 NR -10.7789 74.7712 main 1978 1978 _____P________ -1 -10.7789 74.7712 99 9 251
1861101S09084 1861 15 SI MM NOT_NAMED 1861-04-15 03:00:00 NR -10.9326 74.3397 main 2006 2004 _____P________ -1 -10.9326 74.3397 99 9 249
1861101S09084 1861 15 SI MM NOT_NAMED 1861-04-15 06:00:00 NR -11.1000 73.9000 reunion main 2004 1955 _____O________ -1 -11.1000 73.9000 99 9.90000 10 249
1861101S09084 1861 15 SI MM NOT_NAMED 1861-04-15 09:00:00 NR -11.2843 73.4270 main 1946 1897 _____P________ -1 -11.2843 73.4270 99 10 248
1861101S09084 1861 15 SI MM NOT_NAMED 1861-04-15 12:00:00 NR -11.4839 72.9392 main 1888 1839 _____P________ -1 -11.4839 72.9392 99 10 247
1861101S09084 1861 15 SI MM NOT_NAMED 1861-04-15 15:00:00 NR -11.6951 72.4454 main 1830 1781 _____P________ -1 -11.6951 72.4454 99 11 246
1861101S09084 1861 15 SI MM NOT_NAMED 1861-04-15 18:00:00 NR -11.9142 71.9544 main 1781 1723 _____P________ -1 -11.9142 71.9544 99 10 245
1861101S09084 1861 15 SI MM NOT_NAMED 1861-04-15 21:00:00 NR -12.1378 71.4753 main 1723 1666 _____P________ -1 -12.1378 71.4753 99 10 244
1861101S09084 1861 15 SI MM NOT_NAMED 1861-04-16 00:00:00 NR -12.3622 71.0171 main 1659 1611 _____P________ -1 -12.3622 71.0171 99 10 243
1861101S09084 1861 15 SI MM NOT_NAMED 1861-04-16 03:00:00 NR -12.5841 70.5890 main 1611 1562 _____P________ -1 -12.5841 70.5890 99 9 241
1861101S09084 1861 15 SI MM NOT_NAMED 1861-04-16 06:00:00 NR -12.8000 70.2000 reunion main 1562 1523 _____O________ -1 -12.8000 70.2000 99 9.90000 8 240
1861101S09084 1861 15 SI MM NOT_NAMED 1861-04-16 09:00:00 NR -12.9881 69.8723 main 1523 1483 _____P________ -1 -12.9881 69.8723 99 7 238
1861101S09084 1861 15 SI MM NOT_NAMED 1861-04-16 12:00:00 NR -13.1713 69.5821 main 1483 1450 _____P________ -1 -13.1713 69.5821 99 6 236
1861101S09084 1861 15 SI MM NOT_NAMED 1861-04-16 15:00:00 NR -13.3521 69.3235 main 1444 1420 _____P________ -1 -13.3521 69.3235 99 6 233
1861101S09084 1861 15 SI MM NOT_NAMED 1861-04-16 18:00:00 NR -13.5328 69.0907 main 1420 1389 _____P________ -1 -13.5328 69.0907 99 6 230
1861101S09084 1861 15 SI MM NOT_NAMED 1861-04-16 21:00:00 NR -13.7157 68.8779 main 1389 1359 _____P________ -1 -13.7157 68.8779 99 5 227
1861101S09084 1861 15 SI MM NOT_NAMED 1861-04-17 00:00:00 NR -13.9030 68.6791 main 1359 1329 _____P________ -1 -13.9030 68.6791 99 5 225
1861101S09084 1861 15 SI MM NOT_NAMED 1861-04-17 03:00:00 NR -14.0970 68.4884 main 1329 1299 _____P________ -1 -14.0970 68.4884 99 5 223
1861101S09084 1861 15 SI MM NOT_NAMED 1861-04-17 06:00:00 NR -14.3000 68.3000 reunion main 1299 1269 _____O________ -1 -14.3000 68.3000 99 9.90000 6 223
1861101S09084 1861 15 SI MM NOT_NAMED 1861-04-17 09:00:00 NR -14.5322 68.0691 main 1269 1233 _____P________ -1 -14.5322 68.0691 99 7 223
1861101S09084 1861 15 SI MM NOT_NAMED 1861-04-17 12:00:00 NR -14.7746 67.8424 main 1224 1194 _____P________ -1 -14.7746 67.8424 99 7 221
1861101S09084 1861 15 SI MM NOT_NAMED 1861-04-17 15:00:00 NR -15.0228 67.6222 main 1194 1159 _____P________ -1 -15.0228 67.6222 99 7 220
1861101S09084 1861 15 SI MM NOT_NAMED 1861-04-17 18:00:00 NR -15.2725 67.4108 main 1159 1129 _____P________ -1 -15.2725 67.4108 99 6 219
1861101S09084 1861 15 SI MM NOT_NAMED 1861-04-17 21:00:00 NR -15.5194 67.2105 main 1129 1100 _____P________ -1 -15.5194 67.2105 99 6 217
1861101S09084 1861 15 SI MM NOT_NAMED 1861-04-18 00:00:00 NR -15.7591 67.0237 main 1094 1074 _____P________ -1 -15.7591 67.0237 99 6 216
1861101S09084 1861 15 SI MM NOT_NAMED 1861-04-18 03:00:00 NR -15.9874 66.8527 main 1074 1045 _____P________ -1 -15.9874 66.8527 99 5 215
1861101S09084 1861 15 SI MM NOT_NAMED 1861-04-18 06:00:00 NR -16.2000 66.7000 reunion main 1045 1025 _____O________ -1 -16.2000 66.7000 99 9.90000 5 214
1861101S09084 1861 15 SI MM NOT_NAMED 1861-04-18 09:00:00 NR -16.3937 66.5671 main 1025 1006 _____P________ -1 -16.3937 66.5671 99 4 213
1861101S09084 1861 15 SI MM NOT_NAMED 1861-04-18 12:00:00 NR -16.5699 66.4523 main 1006 992 _____P________ -1 -16.5699 66.4523 99 4 211
1861101S09084 1861 15 SI MM NOT_NAMED 1861-04-18 15:00:00 NR -16.7311 66.3531 main 992 973 _____P________ -1 -16.7311 66.3531 99 4 209
1861101S09084 1861 15 SI MM NOT_NAMED 1861-04-18 18:00:00 NR -16.8798 66.2669 main 973 958 _____P________ -1 -16.8798 66.2669 99 3 208
1861101S09084 1861 15 SI MM NOT_NAMED 1861-04-18 21:00:00 NR -17.0186 66.1911 main 958 944 _____P________ -1 -17.0186 66.1911 99 3 207
1861101S09084 1861 15 SI MM NOT_NAMED 1861-04-19 00:00:00 NR -17.1499 66.1231 main 944 935 _____P________ -1 -17.1499 66.1231 99 3 205
1861101S09084 1861 15 SI MM NOT_NAMED 1861-04-19 03:00:00 NR -17.2762 66.0603 main 935 921 _____P________ -1 -17.2762 66.0603 99 3 205
1861101S09084 1861 15 SI MM NOT_NAMED 1861-04-19 06:00:00 NR -17.4000 66.0000 reunion main 921 _____O________ -1 -17.4000 66.0000 99 9.90000 3 205

About IBTrACS Database

This database is a web-friendly format of International Best Track Archive for Climate Stewardship (IBTrACS), a global best track data archive curated by NOAA dating back to 1842.

Updated: 2021-10-21